Time;durP1;ratioP1;P1;durP2;ratioP2;P2;SDS_P1;SDS_P2;PMS_P1;PMS_P2;Temp;Humidity;BMP_temperature;BMP_pressure;BME280_temperature;BME280_humidity;BME280_pressure;Samples;Min_cycle;Max_cycle;Signal;HPM_P1;HPM_P2
2021/07/14 00:00:18;;;;;;;2.08;1.40;;;17.60;99.90;;;;;;5032147;28;20029;-71
2021/07/14 00:02:45;;;;;;;5.57;1.58;;;17.50;99.90;;;;;;5032420;28;20163;-64
2021/07/14 00:05:13;;;;;;;3.40;1.50;;;17.50;99.90;;;;;;5032987;28;20034;-68
2021/07/14 00:07:40;;;;;;;2.08;1.63;;;17.50;99.90;;;;;;5035682;28;20037;-67
2021/07/14 00:10:14;;;;;;;4.93;2.00;;;17.60;99.90;;;;;;5035317;28;20423;-65
2021/07/14 00:12:59;;;;;;;3.60;2.15;;;17.60;99.90;;;;;;5035949;28;20056;-66
2021/07/14 00:23:33;;;;;;;5.65;1.70;;;17.50;99.90;;;;;;5035305;28;20048;-65
2021/07/14 00:25:59;;;;;;;2.78;1.83;;;17.60;99.90;;;;;;5034437;28;20088;-67
2021/07/14 00:28:25;;;;;;;3.00;1.58;;;17.60;99.90;;;;;;5033877;28;20453;-66
2021/07/14 00:31:00;;;;;;;10.13;2.13;;;17.60;99.90;;;;;;5035436;28;20110;-65
2021/07/14 00:33:27;;;;;;;1.60;1.50;;;17.60;99.90;;;;;;5034985;28;20053;-66
2021/07/14 00:35:54;;;;;;;7.47;1.70;;;17.70;99.90;;;;;;5034004;28;20030;-65
2021/07/14 00:38:20;;;;;;;4.35;2.00;;;17.70;99.90;;;;;;5033698;28;20475;-66
2021/07/14 00:40:46;;;;;;;4.43;1.58;;;17.70;99.90;;;;;;5034388;28;20030;-66
2021/07/14 00:43:12;;;;;;;6.43;2.83;;;17.60;99.90;;;;;;5036376;28;20029;-67
2021/07/14 00:45:38;;;;;;;2.85;1.73;;;17.60;99.90;;;;;;5035065;28;20096;-68
2021/07/14 00:48:05;;;;;;;4.47;1.83;;;17.60;99.90;;;;;;5039137;28;20117;-66
2021/07/14 00:50:30;;;;;;;5.25;1.73;;;17.60;99.90;;;;;;5037635;28;20026;-68
2021/07/14 00:52:57;;;;;;;2.78;1.65;;;17.60;99.90;;;;;;5038385;28;20120;-66
2021/07/14 00:55:23;;;;;;;1.67;1.58;;;17.70;99.90;;;;;;5034315;28;20030;-67
2021/07/14 00:57:49;;;;;;;2.05;1.80;;;17.60;99.90;;;;;;5035356;28;20395;-67
2021/07/14 01:00:14;;;;;;;2.53;1.42;;;17.70;99.90;;;;;;5036156;28;20033;-66
2021/07/14 01:02:40;;;;;;;2.60;1.63;;;17.70;99.90;;;;;;5034802;28;20577;-65
2021/07/14 01:05:29;;;;;;;3.75;1.80;;;17.60;99.90;;;;;;5033760;28;20033;-65
2021/07/14 01:08:20;;;;;;;4.30;1.50;;;17.60;99.90;;;;;;5033447;28;20040;-65
2021/07/14 01:10:58;;;;;;;4.47;1.40;;;17.60;99.90;;;;;;5034505;28;20471;-65
2021/07/14 01:13:38;;;;;;;2.47;1.67;;;17.60;99.90;;;;;;5033734;28;20039;-67
2021/07/14 01:16:07;;;;;;;1.95;1.73;;;17.50;99.90;;;;;;5033347;28;20506;-65
2021/07/14 01:18:55;;;;;;;6.18;1.50;;;17.60;99.90;;;;;;5032528;28;20030;-64
2021/07/14 01:21:33;;;;;;;4.15;1.70;;;17.60;99.90;;;;;;5036703;28;20020;-66
2021/07/14 01:24:40;;;;;;;2.80;1.67;;;17.50;99.90;;;;;;5027649;28;20373;-65
2021/07/14 01:27:13;;;;;;;3.35;1.65;;;17.50;99.90;;;;;;5001712;28;20050;-65
2021/07/14 01:29:48;;;;;;;1.55;1.45;;;17.50;99.90;;;;;;5016721;28;20116;-65
2021/07/14 01:32:16;;;;;;;3.92;1.70;;;17.50;99.90;;;;;;5034675;28;20510;-65
2021/07/14 01:34:52;;;;;;;3.50;1.35;;;17.50;99.90;;;;;;5033524;28;20216;-65
2021/07/14 01:37:22;;;;;;;2.88;1.50;;;17.50;99.90;;;;;;5034242;28;20072;-66
2021/07/14 01:39:51;;;;;;;1.70;1.38;;;17.50;99.90;;;;;;5034198;28;20037;-65
2021/07/14 01:42:21;;;;;;;3.72;1.73;;;17.50;99.90;;;;;;5033960;28;20467;-65
2021/07/14 01:44:49;;;;;;;3.20;1.90;;;17.40;99.90;;;;;;5033451;28;20056;-65
2021/07/14 01:47:16;;;;;;;5.80;1.70;;;17.40;99.90;;;;;;5016250;28;20060;-65
2021/07/14 01:49:43;;;;;;;2.95;1.52;;;17.30;99.90;;;;;;5015607;28;20556;-65
2021/07/14 01:52:13;;;;;;;3.13;1.75;;;17.30;99.90;;;;;;5032736;28;20025;-65
2021/07/14 01:54:41;;;;;;;2.47;1.80;;;17.30;99.90;;;;;;5015813;28;20025;-65
2021/07/14 01:57:08;;;;;;;4.63;1.85;;;17.40;99.90;;;;;;5034134;28;20041;-65
2021/07/14 01:59:36;;;;;;;3.55;1.73;;;17.40;99.90;;;;;;5033626;28;20513;-64
2021/07/14 02:02:04;;;;;;;3.22;1.70;;;17.40;99.90;;;;;;5033950;28;20029;-66
2021/07/14 02:04:35;;;;;;;2.35;1.55;;;17.30;99.90;;;;;;5033337;28;20107;-65
2021/07/14 02:07:05;;;;;;;1.67;1.58;;;17.30;99.90;;;;;;5033685;28;20033;-65
2021/07/14 02:09:33;;;;;;;2.05;1.27;;;17.30;99.90;;;;;;5032947;28;20033;-65
2021/07/14 02:12:01;;;;;;;4.60;1.90;;;17.40;99.90;;;;;;5033740;28;20104;-66
2021/07/14 02:14:31;;;;;;;5.10;1.58;;;17.40;99.90;;;;;;5015435;28;20026;-65
2021/07/14 02:16:59;;;;;;;2.95;1.65;;;17.40;99.90;;;;;;5015771;28;20048;-65
2021/07/14 02:19:28;;;;;;;2.13;1.40;;;17.40;99.90;;;;;;5015212;28;20036;-70
2021/07/14 02:21:54;;;;;;;1.35;1.25;;;17.40;99.90;;;;;;5015407;28;20433;-65
2021/07/14 02:24:20;;;;;;;3.70;1.50;;;17.40;99.90;;;;;;5033233;28;20036;-66
2021/07/14 02:26:46;;;;;;;5.47;1.20;;;17.40;99.90;;;;;;5015265;28;20033;-65
2021/07/14 02:29:12;;;;;;;3.13;1.13;;;17.40;99.90;;;;;;5032741;28;20422;-64
2021/07/14 02:31:38;;;;;;;5.13;1.65;;;17.40;99.90;;;;;;5032882;28;20026;-66
2021/07/14 02:34:07;;;;;;;4.05;1.48;;;17.40;99.90;;;;;;5016143;28;20534;-65
2021/07/14 02:36:34;;;;;;;3.88;1.30;;;17.40;99.90;;;;;;5033101;28;20466;-66
2021/07/14 02:39:03;;;;;;;4.75;1.40;;;17.40;99.90;;;;;;5033701;28;20466;-65
2021/07/14 02:41:53;;;;;;;3.30;1.67;;;17.30;99.90;;;;;;5015238;28;20026;-65
2021/07/14 02:44:21;;;;;;;6.85;1.58;;;17.30;99.90;;;;;;5034191;28;20494;-67
2021/07/14 02:46:49;;;;;;;3.72;1.88;;;17.20;99.90;;;;;;5034067;28;20216;-65
2021/07/14 02:49:20;;;;;;;4.97;1.33;;;17.20;99.90;;;;;;5034693;28;20152;-66
2021/07/14 02:51:49;;;;;;;3.08;1.65;;;17.20;99.90;;;;;;5015962;28;20028;-67
2021/07/14 02:54:22;;;;;;;5.07;1.50;;;17.10;99.90;;;;;;5036382;28;20036;-65
2021/07/14 02:56:51;;;;;;;2.20;1.50;;;17.10;99.90;;;;;;5018996;28;20533;-65
2021/07/14 02:59:23;;;;;;;7.63;1.67;;;17.10;99.90;;;;;;5018835;28;20039;-69
2021/07/14 03:01:51;;;;;;;3.28;1.55;;;17.10;99.90;;;;;;5018444;28;20089;-66
2021/07/14 03:04:17;;;;;;;3.55;2.00;;;17.20;99.90;;;;;;5017830;28;20029;-69
2021/07/14 03:06:45;;;;;;;1.50;1.40;;;17.20;99.90;;;;;;5032945;28;20088;-66
2021/07/14 03:09:11;;;;;;;3.20;1.67;;;17.10;99.90;;;;;;5033209;28;20029;-66
2021/07/14 03:11:42;;;;;;;1.92;1.70;;;17.20;99.90;;;;;;5032719;28;20033;-66
2021/07/14 03:14:11;;;;;;;5.15;1.80;;;17.20;99.90;;;;;;5015711;28;20021;-65
2021/07/14 03:16:37;;;;;;;4.80;1.92;;;17.20;99.90;;;;;;5015026;28;20067;-66
2021/07/14 03:19:04;;;;;;;3.72;1.70;;;17.20;99.90;;;;;;5035285;28;20030;-66
2021/07/14 03:21:31;;;;;;;3.30;1.73;;;17.20;99.90;;;;;;5035792;28;20360;-66
2021/07/14 03:24:05;;;;;;;4.60;2.13;;;17.10;99.90;;;;;;5019039;28;20029;-68
2021/07/14 03:26:32;;;;;;;3.15;1.70;;;17.20;99.90;;;;;;5034836;28;20037;-66
2021/07/14 03:28:58;;;;;;;4.60;2.17;;;17.10;99.90;;;;;;5034141;28;20062;-66
2021/07/14 03:31:23;;;;;;;4.55;2.20;;;17.10;99.90;;;;;;5034201;28;20035;-65
2021/07/14 03:33:50;;;;;;;3.60;1.90;;;17.10;99.90;;;;;;5033309;28;20220;-66
2021/07/14 03:36:17;;;;;;;2.92;2.22;;;17.20;99.90;;;;;;5035409;28;20053;-67
2021/07/14 03:38:43;;;;;;;4.70;1.85;;;17.10;99.90;;;;;;5034149;28;20059;-65
2021/07/14 03:41:09;;;;;;;4.18;2.28;;;17.10;99.90;;;;;;5034514;28;20021;-64
2021/07/14 03:43:35;;;;;;;3.10;2.10;;;17.10;99.90;;;;;;5018219;28;20079;-66
2021/07/14 03:46:02;;;;;;;5.80;2.20;;;17.10;99.90;;;;;;5020271;28;20061;-65
2021/07/14 03:48:30;;;;;;;3.03;2.70;;;17.00;99.90;;;;;;5020913;28;20029;-65
2021/07/14 03:50:58;;;;;;;4.60;2.63;;;17.00;99.90;;;;;;5038471;28;20021;-66
2021/07/14 03:53:24;;;;;;;4.88;2.90;;;17.00;99.90;;;;;;5037280;28;20169;-65
2021/07/14 03:55:51;;;;;;;3.42;2.22;;;17.00;99.90;;;;;;5035612;28;20033;-65
2021/07/14 03:58:18;;;;;;;13.23;2.92;;;17.00;99.90;;;;;;5018643;28;20075;-65
2021/07/14 04:00:47;;;;;;;4.30;1.92;;;17.10;99.90;;;;;;5035452;28;20021;-65
2021/07/14 04:03:12;;;;;;;6.35;2.00;;;17.00;99.90;;;;;;5018404;28;20130;-65
2021/07/14 04:05:43;;;;;;;1.98;1.85;;;17.10;99.90;;;;;;5035342;28;20447;-65
2021/07/14 04:08:12;;;;;;;3.95;2.42;;;17.00;99.90;;;;;;5018153;28;20036;-65
2021/07/14 04:10:39;;;;;;;6.43;2.20;;;16.90;99.90;;;;;;5017542;28;20026;-66
2021/07/14 04:13:05;;;;;;;2.03;1.80;;;17.00;99.90;;;;;;5035634;28;20026;-67
2021/07/14 04:15:33;;;;;;;2.40;2.10;;;17.00;99.90;;;;;;5018179;28;20155;-66
2021/07/14 04:17:59;;;;;;;5.53;2.35;;;17.00;99.90;;;;;;5036233;28;20036;-65
2021/07/14 04:20:25;;;;;;;4.88;2.30;;;17.00;99.90;;;;;;5017875;28;20040;-66
2021/07/14 04:22:50;;;;;;;4.38;2.08;;;17.10;99.90;;;;;;5017352;28;20029;-65
2021/07/14 04:25:16;;;;;;;3.17;1.90;;;17.10;99.90;;;;;;5017817;28;20022;-66
2021/07/14 04:27:41;;;;;;;7.07;2.05;;;17.10;99.90;;;;;;5034726;28;20033;-65
2021/07/14 04:30:08;;;;;;;2.45;2.00;;;17.10;99.90;;;;;;5017576;28;20080;-65
2021/07/14 04:32:33;;;;;;;10.73;2.83;;;17.20;99.90;;;;;;5034685;28;20382;-70
2021/07/14 04:34:59;;;;;;;4.90;1.88;;;17.10;99.90;;;;;;5035754;28;20029;-68
2021/07/14 04:37:24;;;;;;;5.03;2.30;;;17.20;99.90;;;;;;5035392;28;20080;-65
2021/07/14 04:39:50;;;;;;;4.38;2.15;;;17.10;99.90;;;;;;5034506;28;20072;-65
2021/07/14 04:42:15;;;;;;;2.85;2.08;;;17.10;99.90;;;;;;5035631;28;20025;-66
2021/07/14 04:45:14;;;;;;;2.88;2.13;;;17.10;99.90;;;;;;5034578;28;20053;-65
2021/07/14 04:47:33;;;;;;;2.70;1.90;;;17.20;99.90;;;;;;5032696;28;20045;-65
2021/07/14 04:49:58;;;;;;;4.15;2.58;;;17.20;99.90;;;;;;5016959;28;20038;-67
2021/07/14 04:52:24;;;;;;;4.60;1.95;;;17.20;99.90;;;;;;5017048;28;20033;-68
2021/07/14 04:54:50;;;;;;;1.85;1.65;;;17.30;99.90;;;;;;5034870;28;20482;-65
2021/07/14 04:57:15;;;;;;;2.58;2.05;;;17.20;99.90;;;;;;5017232;28;20040;-64
2021/07/14 04:59:41;;;;;;;3.10;2.00;;;17.10;99.90;;;;;;5016761;28;20081;-65
2021/07/14 05:02:07;;;;;;;1.63;1.52;;;17.10;99.90;;;;;;5036008;28;20029;-66
2021/07/14 05:04:36;;;;;;;4.40;2.03;;;17.20;99.90;;;;;;5035592;28;20083;-66
2021/07/14 05:07:02;;;;;;;2.35;1.60;;;17.30;99.90;;;;;;5035534;28;20053;-66
2021/07/14 05:09:28;;;;;;;3.15;1.70;;;17.20;99.90;;;;;;5034496;28;20034;-67
2021/07/14 05:11:53;;;;;;;3.15;1.70;;;17.30;99.90;;;;;;5016510;28;20025;-65
2021/07/14 05:14:22;;;;;;;5.80;2.05;;;17.30;99.90;;;;;;5017014;28;20029;-67
2021/07/14 05:16:48;;;;;;;2.15;1.70;;;17.30;99.90;;;;;;5033955;28;20030;-65
2021/07/14 05:19:14;;;;;;;5.05;1.83;;;17.30;99.90;;;;;;5034353;28;20220;-66
2021/07/14 05:21:41;;;;;;;2.08;1.40;;;17.30;99.90;;;;;;5034239;28;20025;-65
2021/07/14 05:24:07;;;;;;;4.28;2.03;;;17.10;99.90;;;;;;5016671;28;20022;-65
2021/07/14 05:26:32;;;;;;;2.90;1.77;;;17.20;99.90;;;;;;5016438;28;20033;-67
2021/07/14 05:28:58;;;;;;;3.45;2.05;;;17.30;99.90;;;;;;5016296;28;20040;-65
2021/07/14 05:31:24;;;;;;;3.35;1.75;;;17.30;99.90;;;;;;5016738;28;20085;-65
2021/07/14 05:33:49;;;;;;;2.33;2.13;;;17.30;99.90;;;;;;5034103;28;20026;-66
2021/07/14 05:36:15;;;;;;;2.35;1.73;;;17.20;99.90;;;;;;5034497;28;20033;-65
2021/07/14 05:38:41;;;;;;;4.00;2.30;;;17.20;99.90;;;;;;5015898;28;20405;-65
2021/07/14 05:41:08;;;;;;;4.68;1.63;;;17.30;99.90;;;;;;5034322;28;20037;-68
2021/07/14 05:43:34;;;;;;;2.85;2.30;;;17.30;99.90;;;;;;5016267;28;20459;-66
2021/07/14 05:46:00;;;;;;;1.95;1.50;;;17.40;99.90;;;;;;5033411;28;20026;-65
2021/07/14 05:48:26;;;;;;;6.25;2.03;;;17.30;99.90;;;;;;5016574;28;20529;-65
2021/07/14 05:50:52;;;;;;;3.53;2.25;;;17.30;99.90;;;;;;5033604;28;20036;-65
2021/07/14 05:53:18;;;;;;;2.63;1.92;;;17.30;99.90;;;;;;5016839;28;20026;-66
2021/07/14 05:55:44;;;;;;;4.65;1.83;;;17.30;99.90;;;;;;5016319;28;20083;-64
2021/07/14 05:58:11;;;;;;;8.05;1.60;;;17.30;99.90;;;;;;5034514;28;20144;-66
2021/07/14 06:00:38;;;;;;;5.78;1.73;;;17.40;99.90;;;;;;5034664;28;20021;-65
2021/07/14 06:03:05;;;;;;;1.73;1.48;;;17.30;99.90;;;;;;5019363;28;20054;-67
2021/07/14 06:05:32;;;;;;;4.15;1.95;;;17.20;99.90;;;;;;5037464;28;20032;-66
2021/07/14 06:07:57;;;;;;;4.90;1.85;;;17.30;99.90;;;;;;5035528;28;20064;-66
2021/07/14 06:10:23;;;;;;;5.50;2.15;;;17.30;99.90;;;;;;5034122;28;20025;-65
2021/07/14 06:12:55;;;;;;;4.72;2.13;;;17.30;99.90;;;;;;5034743;28;20133;-66
2021/07/14 06:15:21;;;;;;;5.07;1.70;;;17.30;99.90;;;;;;5034691;28;20075;-65
2021/07/14 06:17:46;;;;;;;2.78;1.92;;;17.40;99.90;;;;;;5033330;28;20108;-65
2021/07/14 06:20:13;;;;;;;2.25;1.58;;;17.30;99.90;;;;;;5034190;28;20435;-67
2021/07/14 06:22:39;;;;;;;1.60;1.45;;;17.30;99.90;;;;;;5033717;28;20025;-65
2021/07/14 06:25:06;;;;;;;3.17;2.17;;;17.30;99.90;;;;;;5016383;28;20033;-66
2021/07/14 06:27:34;;;;;;;6.25;2.45;;;17.30;99.90;;;;;;5016701;28;20038;-68
2021/07/14 06:30:05;;;;;;;3.55;1.88;;;17.30;99.90;;;;;;5034112;28;20021;-67
2021/07/14 06:32:31;;;;;;;4.07;1.90;;;17.30;99.90;;;;;;5018166;28;20032;-65
2021/07/14 06:34:58;;;;;;;3.13;1.70;;;17.30;99.90;;;;;;5036222;28;20033;-67
2021/07/14 06:37:24;;;;;;;4.00;1.88;;;17.40;99.90;;;;;;5036154;28;20039;-70
2021/07/14 06:39:49;;;;;;;3.08;2.10;;;17.40;99.90;;;;;;5034373;28;20120;-67
2021/07/14 06:42:15;;;;;;;5.00;2.30;;;17.40;99.90;;;;;;5015610;28;20440;-65
2021/07/14 06:44:41;;;;;;;2.15;1.50;;;17.40;99.90;;;;;;5032742;28;20045;-72
2021/07/14 06:47:07;;;;;;;6.65;2.25;;;17.40;99.90;;;;;;5015793;28;20391;-68
2021/07/14 06:49:32;;;;;;;4.25;1.52;;;17.40;99.90;;;;;;5033352;28;20040;-68
2021/07/14 06:51:59;;;;;;;5.22;1.95;;;17.40;99.90;;;;;;5015340;28;20036;-67
2021/07/14 06:54:25;;;;;;;2.80;2.13;;;17.50;99.90;;;;;;5016023;28;20040;-66
2021/07/14 06:56:50;;;;;;;4.60;1.98;;;17.50;99.90;;;;;;5033927;28;20113;-66
2021/07/14 06:59:16;;;;;;;3.30;1.83;;;17.40;99.90;;;;;;5017744;28;20463;-68
2021/07/14 07:01:42;;;;;;;2.28;1.60;;;17.40;99.90;;;;;;5034957;28;20442;-69
2021/07/14 07:04:07;;;;;;;2.15;1.90;;;17.40;99.90;;;;;;5034436;28;20022;-65
2021/07/14 07:06:33;;;;;;;2.10;1.83;;;17.40;99.90;;;;;;5033766;28;20437;-64
2021/07/14 07:08:59;;;;;;;10.07;2.03;;;17.50;99.90;;;;;;5032782;28;20037;-64
2021/07/14 07:11:25;;;;;;;6.43;1.65;;;17.50;99.90;;;;;;5032716;28;20021;-60
2021/07/14 07:13:51;;;;;;;4.68;1.70;;;18.20;99.90;;;;;;5014279;28;20379;-55
2021/07/14 07:16:16;;;;;;;5.00;1.90;;;18.50;99.90;;;;;;5014449;28;20037;-56
2021/07/14 07:18:42;;;;;;;5.85;2.33;;;18.30;99.90;;;;;;5031492;28;20057;-54
2021/07/14 07:21:09;;;;;;;8.25;2.72;;;18.00;99.90;;;;;;5013937;28;20030;-54
2021/07/14 07:23:36;;;;;;;3.42;2.10;;;17.80;99.90;;;;;;5014218;28;20056;-55
2021/07/14 07:26:03;;;;;;;5.10;1.80;;;17.60;99.90;;;;;;5031495;28;20053;-67
2021/07/14 07:28:34;;;;;;;2.88;2.38;;;17.50;99.90;;;;;;5032300;28;20033;-66
2021/07/14 07:31:00;;;;;;;3.00;1.80;;;17.50;99.90;;;;;;5032321;28;20026;-67
2021/07/14 07:33:26;;;;;;;5.22;2.38;;;17.50;99.90;;;;;;5015159;28;20100;-65
2021/07/14 07:35:51;;;;;;;3.65;2.47;;;17.60;99.90;;;;;;5013753;28;20029;-65
2021/07/14 07:38:17;;;;;;;4.90;2.25;;;17.40;99.90;;;;;;5014826;28;20069;-64
2021/07/14 07:40:43;;;;;;;5.47;2.38;;;17.40;99.90;;;;;;5032330;28;20108;-71
2021/07/14 07:43:08;;;;;;;7.32;2.30;;;17.50;99.90;;;;;;5031657;28;20037;-65
2021/07/14 07:45:34;;;;;;;7.65;2.30;;;17.50;99.90;;;;;;5032355;28;20398;-65
2021/07/14 07:48:00;;;;;;;3.17;1.77;;;17.50;99.90;;;;;;5031658;28;20103;-64
2021/07/14 07:50:25;;;;;;;3.58;2.05;;;17.40;99.90;;;;;;5032518;28;20075;-68
2021/07/14 07:52:51;;;;;;;3.08;2.75;;;17.40;99.90;;;;;;5031817;28;20021;-65
2021/07/14 07:55:17;;;;;;;5.35;2.30;;;17.50;99.90;;;;;;5014243;28;20059;-64
2021/07/14 07:57:43;;;;;;;5.88;2.35;;;17.50;99.90;;;;;;5032422;28;20041;-64
2021/07/14 08:00:17;;;;;;;4.30;1.77;;;17.50;99.90;;;;;;5031881;28;20060;-66
2021/07/14 08:02:43;;;;;;;5.60;1.98;;;17.60;99.90;;;;;;5014730;28;20095;-66
2021/07/14 08:05:09;;;;;;;5.43;1.88;;;17.60;99.90;;;;;;5031525;28;20455;-65
2021/07/14 08:07:35;;;;;;;3.63;1.83;;;17.50;99.90;;;;;;5014672;28;20045;-65
2021/07/14 08:10:00;;;;;;;2.47;1.98;;;17.50;99.90;;;;;;5032186;28;20058;-66
2021/07/14 08:12:26;;;;;;;3.67;2.17;;;17.50;99.90;;;;;;5033493;28;20036;-68
2021/07/14 08:14:52;;;;;;;3.45;2.22;;;17.60;99.90;;;;;;5032638;28;20029;-67
2021/07/14 08:17:17;;;;;;;11.35;2.92;;;17.70;99.90;;;;;;5015940;28;20494;-66
2021/07/14 08:19:43;;;;;;;5.03;2.42;;;17.60;99.90;;;;;;5032758;28;20025;-64
2021/07/14 08:22:09;;;;;;;4.18;2.00;;;17.50;99.90;;;;;;5031555;28;20474;-65
2021/07/14 08:24:34;;;;;;;4.28;2.03;;;17.60;99.90;;;;;;5032085;28;20455;-65
2021/07/14 08:27:00;;;;;;;1.95;1.73;;;17.60;99.90;;;;;;5032399;28;20033;-64
2021/07/14 08:29:26;;;;;;;3.40;2.45;;;17.70;99.90;;;;;;5036034;28;20030;-66
2021/07/14 08:31:54;;;;;;;4.78;2.30;;;17.70;99.90;;;;;;5035178;28;20487;-65
2021/07/14 08:34:20;;;;;;;3.17;1.88;;;17.70;99.90;;;;;;5017659;28;20026;-66
2021/07/14 08:36:46;;;;;;;2.78;2.20;;;17.60;99.90;;;;;;5017605;28;20526;-67
2021/07/14 08:39:12;;;;;;;8.45;2.70;;;17.60;99.90;;;;;;5017238;28;20157;-66
2021/07/14 08:41:42;;;;;;;5.57;2.53;;;17.70;99.90;;;;;;5019596;28;20229;-64
2021/07/14 08:44:08;;;;;;;3.55;2.40;;;17.70;99.90;;;;;;5030788;28;20030;-65
2021/07/14 08:46:36;;;;;;;4.90;2.40;;;17.60;99.90;;;;;;5056199;28;20477;-65
2021/07/14 08:49:05;;;;;;;5.00;3.00;;;17.40;99.90;;;;;;5051124;28;20029;-66
2021/07/14 08:51:35;;;;;;;341.13;42.55;;;17.40;99.90;;;;;;5056898;28;20017;-67
2021/07/14 08:54:02;;;;;;;7.47;4.38;;;17.70;99.90;;;;;;5032125;28;20036;-62
2021/07/14 08:56:28;;;;;;;4.07;2.30;;;17.80;99.90;;;;;;5054478;28;20065;-57
2021/07/14 08:58:54;;;;;;;3.95;2.85;;;17.50;99.90;;;;;;5035666;28;20462;-62
2021/07/14 09:01:20;;;;;;;5.03;2.50;;;17.30;99.90;;;;;;5053615;28;20463;-60
2021/07/14 09:03:46;;;;;;;6.05;2.85;;;17.20;99.90;;;;;;5033277;28;20028;-60
2021/07/14 09:06:12;;;;;;;5.78;2.78;;;17.30;99.90;;;;;;5053329;28;20473;-61
2021/07/14 09:08:40;;;;;;;3.80;3.13;;;17.20;99.90;;;;;;5054398;28;20430;-61
2021/07/14 09:11:07;;;;;;;8.27;3.40;;;17.30;99.90;;;;;;5036732;28;20033;-61
2021/07/14 09:13:38;;;;;;;8.25;3.25;;;17.30;99.90;;;;;;5055096;28;20039;-60
2021/07/14 09:16:04;;;;;;;8.05;3.00;;;17.20;99.90;;;;;;5053795;28;20075;-61
2021/07/14 09:18:31;;;;;;;8.57;3.22;;;17.10;99.90;;;;;;5054608;28;20033;-62
2021/07/14 09:20:58;;;;;;;4.47;2.55;;;17.20;99.90;;;;;;5053462;28;20064;-56
2021/07/14 09:23:29;;;;;;;6.75;2.97;;;17.50;99.90;;;;;;5037333;28;20115;-68
2021/07/14 09:26:04;;;;;;;7.50;3.25;;;17.50;99.90;;;;;;5055603;28;20021;-71
2021/07/14 09:28:33;;;;;;;3.35;2.65;;;17.40;99.90;;;;;;5038058;28;20036;-66
2021/07/14 09:31:08;;;;;;;4.13;3.05;;;17.30;99.90;;;;;;5055756;28;20025;-67
2021/07/14 09:33:35;;;;;;;8.20;4.07;;;17.40;99.90;;;;;;5035774;28;20025;-66
2021/07/14 09:36:01;;;;;;;5.00;2.78;;;17.40;99.90;;;;;;5034729;28;20443;-66
2021/07/14 09:38:29;;;;;;;5.07;2.55;;;17.50;99.90;;;;;;5034908;28;20468;-67
2021/07/14 09:41:01;;;;;;;5.43;2.67;;;17.60;99.90;;;;;;5017667;28;20030;-66
2021/07/14 09:43:32;;;;;;;8.55;2.70;;;17.50;99.90;;;;;;5035599;28;20029;-65
2021/07/14 09:46:17;;;;;;;9.60;2.92;;;17.60;99.90;;;;;;5017534;28;20148;-68
2021/07/14 09:48:48;;;;;;;6.40;2.90;;;17.70;99.90;;;;;;5035434;28;20116;-68
2021/07/14 09:51:17;;;;;;;7.28;2.80;;;17.70;99.90;;;;;;5035458;28;20037;-69
2021/07/14 09:53:45;;;;;;;6.63;2.50;;;17.70;99.90;;;;;;5018641;28;20506;-68
2021/07/14 09:59:28;;;;;;;3.22;2.38;;;17.70;99.90;;;;;;4935775;29;20043;-68
2021/07/14 10:01:57;;;;;;;2.63;2.03;;;17.80;99.90;;;;;;5017484;28;20154;-67
2021/07/14 10:07:18;;;;;;;3.85;2.67;;;17.90;99.90;;;;;;5035372;28;20458;-69
2021/07/14 10:09:45;;;;;;;2.72;2.50;;;18.00;99.90;;;;;;5017765;28;20033;-72
2021/07/14 10:12:31;;;;;;;3.05;2.45;;;18.00;99.90;;;;;;5035686;28;20116;-67
2021/07/14 10:15:16;;;;;;;3.05;2.13;;;18.10;99.90;;;;;;5017601;28;20029;-68
2021/07/14 10:17:47;;;;;;;5.38;2.22;;;18.10;99.90;;;;;;5017108;28;20110;-67
2021/07/14 10:20:23;;;;;;;6.97;3.50;;;18.00;99.90;;;;;;5035290;28;20041;-67
2021/07/14 10:22:55;;;;;;;5.05;2.60;;;18.20;99.90;;;;;;5035264;28;20411;-66
2021/07/14 10:25:22;;;;;;;3.65;3.10;;;18.20;99.90;;;;;;5034970;28;20029;-67
2021/07/14 10:27:50;;;;;;;4.85;3.15;;;18.10;99.90;;;;;;5035066;28;20033;-67
2021/07/14 10:30:18;;;;;;;5.57;3.25;;;18.10;99.90;;;;;;5015296;28;20033;-68
2021/07/14 10:32:44;;;;;;;7.45;3.22;;;18.10;99.90;;;;;;5033565;28;20033;-68
2021/07/14 10:35:11;;;;;;;5.43;3.63;;;18.10;99.90;;;;;;5015115;28;20055;-64
2021/07/14 10:37:39;;;;;;;5.75;3.60;;;18.00;99.90;;;;;;5015824;28;20032;-64
2021/07/14 10:40:07;;;;;;;4.28;3.22;;;18.00;99.90;;;;;;5015574;28;20033;-65
2021/07/14 10:42:34;;;;;;;5.32;3.17;;;18.10;99.90;;;;;;5033567;28;20502;-65
2021/07/14 10:45:04;;;;;;;13.90;3.92;;;18.00;99.90;;;;;;5032748;28;20042;-66
2021/07/14 10:47:30;;;;;;;4.15;3.42;;;18.10;99.90;;;;;;5034738;28;20352;-71
2021/07/14 10:49:57;;;;;;;9.05;4.05;;;18.10;99.90;;;;;;5033966;28;20364;-69
2021/07/14 10:52:24;;;;;;;5.78;4.47;;;18.20;99.90;;;;;;5034307;28;20029;-65
2021/07/14 10:54:52;;;;;;;7.07;4.03;;;18.20;99.90;;;;;;5016071;28;20034;-68
2021/07/14 10:57:22;;;;;;;5.53;4.15;;;18.10;99.90;;;;;;5034389;28;20067;-68
2021/07/14 10:59:50;;;;;;;9.20;3.88;;;18.00;99.90;;;;;;5034450;28;20052;-70
2021/07/14 11:02:16;;;;;;;17.77;4.18;;;18.00;99.90;;;;;;5034311;28;20407;-68
2021/07/14 11:04:50;;;;;;;5.45;3.45;;;18.00;99.90;;;;;;5034795;28;20091;-69
2021/07/14 11:07:17;;;;;;;5.85;3.53;;;18.10;99.90;;;;;;5056920;28;20029;-70
2021/07/14 11:09:46;;;;;;;5.57;3.20;;;18.20;99.90;;;;;;5057449;28;20117;-70
2021/07/14 11:12:38;;;;;;;11.35;3.33;;;18.10;99.90;;;;;;5039463;28;20062;-67
2021/07/14 11:15:06;;;;;;;5.40;3.60;;;18.10;99.90;;;;;;5056437;28;20025;-67
2021/07/14 11:17:34;;;;;;;6.70;3.40;;;18.10;99.90;;;;;;5055872;28;20059;-76
2021/07/14 11:20:15;;;;;;;5.15;3.63;;;18.10;99.90;;;;;;5055883;28;20098;-68
2021/07/14 11:22:42;;;;;;;6.03;3.78;;;18.00;99.90;;;;;;5038530;28;20463;-73
2021/07/14 11:25:25;;;;;;;6.45;4.05;;;17.90;99.90;;;;;;5056866;28;20041;-67
2021/07/14 11:28:06;;;;;;;7.97;3.83;;;18.00;99.90;;;;;;5038300;28;20032;-74
2021/07/14 11:30:43;;;;;;;5.43;4.13;;;17.90;99.90;;;;;;5055628;28;20025;-68
2021/07/14 11:33:17;;;;;;;7.13;3.83;;;18.10;99.90;;;;;;5038019;28;20029;-72
2021/07/14 11:35:57;;;;;;;4.32;3.92;;;18.20;99.90;;;;;;5057001;28;20028;-69
2021/07/14 11:38:42;;;;;;;5.63;3.88;;;18.00;99.90;;;;;;5055595;28;20091;-68
2021/07/14 11:41:39;;;;;;;6.30;4.32;;;18.20;99.90;;;;;;5054830;28;20424;-67
2021/07/14 11:44:05;;;;;;;4.93;4.43;;;18.20;99.90;;;;;;5054246;28;20044;-72
2021/07/14 11:46:32;;;;;;;5.25;4.00;;;18.20;99.90;;;;;;5037089;28;20474;-68
2021/07/14 11:49:02;;;;;;;11.23;3.83;;;18.10;99.90;;;;;;5036539;28;20033;-71
2021/07/14 11:51:33;;;;;;;7.03;4.05;;;18.00;99.90;;;;;;5054037;28;20025;-67
2021/07/14 11:54:00;;;;;;;7.60;3.60;;;17.90;99.90;;;;;;5054225;28;20047;-70
2021/07/14 11:56:26;;;;;;;8.63;3.78;;;17.90;99.90;;;;;;5036116;28;20044;-68
2021/07/14 11:59:11;;;;;;;8.40;3.22;;;17.90;99.90;;;;;;5053960;28;20041;-67
2021/07/14 12:01:47;;;;;;;4.80;3.85;;;18.00;99.90;;;;;;5036966;28;20048;-69
2021/07/14 12:04:13;;;;;;;5.03;4.00;;;18.00;99.90;;;;;;5039658;28;20029;-67
2021/07/14 12:07:13;;;;;;;7.95;4.40;;;18.00;99.90;;;;;;5039807;28;20029;-67
2021/07/14 12:09:47;;;;;;;8.00;3.60;;;18.00;99.90;;;;;;5056205;28;20087;-68
2021/07/14 12:12:15;;;;;;;3.83;3.53;;;18.20;99.90;;;;;;5039592;28;20052;-67
2021/07/14 12:14:43;;;;;;;8.55;4.15;;;18.00;99.90;;;;;;5056770;28;20028;-67
2021/07/14 12:17:12;;;;;;;14.82;3.50;;;18.10;99.90;;;;;;5038430;28;20048;-69
2021/07/14 12:19:41;;;;;;;7.03;3.70;;;18.20;99.90;;;;;;5039423;28;20037;-74
2021/07/14 12:22:21;;;;;;;4.40;3.83;;;18.20;99.90;;;;;;5057278;28;20029;-67
2021/07/14 12:24:48;;;;;;;5.13;3.75;;;18.20;99.90;;;;;;5039155;28;20037;-67
2021/07/14 12:27:23;;;;;;;5.25;3.28;;;18.20;99.90;;;;;;5039131;28;20083;-76
2021/07/14 12:29:50;;;;;;;8.43;4.25;;;18.30;99.90;;;;;;5040751;28;20061;-80
2021/07/14 12:32:26;;;;;;;11.13;4.43;;;18.40;99.90;;;;;;5022489;28;20129;-80
2021/07/14 12:34:52;;;;;;;4.63;3.40;;;18.50;99.90;;;;;;5040482;28;20026;-79
2021/07/14 12:37:18;;;;;;;5.53;3.35;;;18.60;99.90;;;;;;5040324;28;20152;-80
2021/07/14 12:39:45;;;;;;;7.43;4.22;;;18.40;99.90;;;;;;5040772;28;20028;-78
2021/07/14 12:42:10;;;;;;;5.95;2.83;;;18.50;99.90;;;;;;5058889;28;20462;-80
2021/07/14 12:44:37;;;;;;;6.78;3.58;;;18.80;99.90;;;;;;5060118;28;20080;-80
2021/07/14 12:47:15;;;;;;;6.97;3.60;;;18.80;99.90;;;;;;5043088;28;20032;-79
2021/07/14 12:49:42;;;;;;;7.85;4.43;;;19.00;99.90;;;;;;5036716;28;20028;-80
2021/07/14 12:52:16;;;;;;;18.05;9.88;;;18.80;99.90;;;;;;5029801;28;20120;-78
2021/07/14 12:54:44;;;;;;;12.05;5.95;;;19.10;99.90;;;;;;5044471;28;20026;-79
2021/07/14 12:57:19;;;;;;;6.65;4.43;;;19.30;99.90;;;;;;5028702;28;20525;-76
2021/07/14 12:59:56;;;;;;;10.38;4.70;;;19.50;99.90;;;;;;5038775;28;20033;-78
2021/07/14 13:02:24;;;;;;;16.10;4.97;;;19.70;99.90;;;;;;5037731;28;20106;-78
2021/07/14 13:04:55;;;;;;;7.00;3.72;;;20.00;99.90;;;;;;5038032;28;20061;-78
2021/07/14 13:07:29;;;;;;;7.55;3.70;;;20.10;99.90;;;;;;5036819;28;20029;-81